createdAt,value
2023-05-06T00:00:40.040Z,42.70
2023-05-06T00:01:40.018Z,43.18
2023-05-06T00:02:40.068Z,43.34
2023-05-06T00:03:40.143Z,43.83
2023-05-06T00:04:40.047Z,42.06
2023-05-06T00:05:39.976Z,42.38
2023-05-06T00:06:39.971Z,43.83
2023-05-06T00:07:39.963Z,42.70
2023-05-06T00:08:39.976Z,41.73
2023-05-06T00:09:39.935Z,42.22
2023-05-06T00:10:39.931Z,43.83
2023-05-06T00:11:39.933Z,41.09
2023-05-06T00:12:39.946Z,42.06
2023-05-06T00:13:40.000Z,44.79
2023-05-06T00:14:39.886Z,59.46
2023-05-06T00:15:39.879Z,43.51
2023-05-06T00:16:39.899Z,46.89
2023-05-06T00:17:39.870Z,45.44
2023-05-06T00:18:39.852Z,59.62
2023-05-06T00:19:39.856Z,45.44
2023-05-06T00:20:39.845Z,60.42
2023-05-06T00:21:39.817Z,42.70
2023-05-06T00:22:39.826Z,46.08
2023-05-06T00:23:39.812Z,43.02
2023-05-06T00:24:39.791Z,61.39
2023-05-06T00:25:39.779Z,44.79
2023-05-06T00:26:40.937Z,44.63
2023-05-06T00:27:40.922Z,44.79
2023-05-06T00:28:40.901Z,58.01
2023-05-06T00:29:40.884Z,55.11
2023-05-06T00:30:40.897Z,44.63
2023-05-06T00:31:40.945Z,43.67
2023-05-06T00:32:40.939Z,42.70
2023-05-06T00:33:40.852Z,43.18
2023-05-06T00:34:40.857Z,43.67
2023-05-06T00:35:40.832Z,45.12
2023-05-06T00:36:40.834Z,42.86
2023-05-06T00:37:40.809Z,43.02
2023-05-06T00:38:40.804Z,44.15
2023-05-06T00:39:40.772Z,45.12
2023-05-06T00:40:40.807Z,44.79
2023-05-06T00:41:40.777Z,44.15
2023-05-06T00:42:40.768Z,41.25
2023-05-06T00:43:40.754Z,39.80
2023-05-06T00:44:40.746Z,42.22
2023-05-06T00:45:40.809Z,40.93
2023-05-06T00:46:40.735Z,42.22
2023-05-06T00:47:40.734Z,56.24
2023-05-06T00:48:40.696Z,41.25
2023-05-06T00:49:40.681Z,44.31
2023-05-06T00:50:40.720Z,41.09
2023-05-06T00:51:40.663Z,42.54
2023-05-06T00:52:40.680Z,40.44
2023-05-06T00:53:40.648Z,49.15
2023-05-06T00:54:40.641Z,62.68
2023-05-06T00:55:41.644Z,59.46
2023-05-06T00:56:40.642Z,43.51
2023-05-06T00:57:40.615Z,42.70
2023-05-06T00:58:40.602Z,43.34
2023-05-06T00:59:40.590Z,42.86
2023-05-06T01:00:40.589Z,43.18
2023-05-06T01:01:40.636Z,44.96
2023-05-06T01:02:46.830Z,40.44
2023-05-06T01:03:42.781Z,41.25
2023-05-06T01:04:40.592Z,41.41
2023-05-06T01:05:40.539Z,41.09
2023-05-06T01:06:40.526Z,41.57
2023-05-06T01:07:40.519Z,40.61
2023-05-06T01:08:40.531Z,40.77
2023-05-06T01:09:40.505Z,40.44
2023-05-06T01:10:40.509Z,40.44
2023-05-06T01:11:40.496Z,40.28
2023-05-06T01:12:40.554Z,43.83
2023-05-06T01:13:40.462Z,43.83
2023-05-06T01:14:40.446Z,42.86
2023-05-06T01:15:40.451Z,40.61
2023-05-06T01:16:40.466Z,40.12
2023-05-06T01:17:40.472Z,40.12
2023-05-06T01:18:40.446Z,39.32
2023-05-06T01:19:40.417Z,39.48
2023-05-06T01:20:40.405Z,39.80
2023-05-06T01:21:40.408Z,43.02
2023-05-06T01:22:40.390Z,41.73
2023-05-06T01:23:40.403Z,41.73
2023-05-06T01:24:40.395Z,41.73
2023-05-06T01:25:40.364Z,44.47
2023-05-06T01:26:40.364Z,43.34
2023-05-06T01:27:40.348Z,40.12
2023-05-06T01:28:40.360Z,40.61
2023-05-06T01:29:40.333Z,41.73
2023-05-06T01:30:40.294Z,40.12
2023-05-06T01:31:40.376Z,42.22
2023-05-06T01:32:40.360Z,40.93
2023-05-06T01:33:40.314Z,42.22
2023-05-06T01:34:40.274Z,40.44
2023-05-06T01:35:40.323Z,40.61
2023-05-06T01:36:40.261Z,41.89
2023-05-06T01:37:40.249Z,39.48
2023-05-06T01:38:40.222Z,39.96
2023-05-06T01:39:40.215Z,57.69
2023-05-06T01:40:40.231Z,58.49
2023-05-06T01:41:40.215Z,53.01
2023-05-06T01:42:40.199Z,46.73
2023-05-06T01:43:40.190Z,55.91
2023-05-06T01:44:40.158Z,42.06
2023-05-06T01:45:40.155Z,41.41
2023-05-06T01:46:40.258Z,41.57
2023-05-06T01:47:40.175Z,41.25
2023-05-06T01:48:40.115Z,41.57
2023-05-06T01:49:40.148Z,39.48
2023-05-06T01:50:40.133Z,43.34
2023-05-06T01:51:40.105Z,39.96
2023-05-06T01:52:40.102Z,41.57
2023-05-06T01:53:40.097Z,45.12
2023-05-06T01:54:40.114Z,40.77
2023-05-06T01:55:40.098Z,41.57
2023-05-06T01:56:40.062Z,40.44
2023-05-06T01:57:40.059Z,38.83
2023-05-06T01:58:40.049Z,39.80
2023-05-06T01:59:40.049Z,39.32
2023-05-06T02:00:40.055Z,40.61
2023-05-06T02:01:40.035Z,40.28
2023-05-06T02:02:40.053Z,42.06
2023-05-06T02:03:40.053Z,41.09
2023-05-06T02:04:39.959Z,43.99
2023-05-06T02:05:39.982Z,42.86
2023-05-06T02:06:39.919Z,38.99
2023-05-06T02:07:39.946Z,39.80
2023-05-06T02:08:39.973Z,40.93
2023-05-06T02:09:39.963Z,41.25
2023-05-06T02:10:39.967Z,41.57
2023-05-06T02:11:39.927Z,39.80
2023-05-06T02:12:39.965Z,41.89
2023-05-06T02:13:39.884Z,40.44
2023-05-06T02:14:39.891Z,40.93
2023-05-06T02:15:39.862Z,39.48
2023-05-06T02:16:39.934Z,40.12
2023-05-06T02:17:40.899Z,38.67
2023-05-06T02:18:39.847Z,59.30
2023-05-06T02:19:39.860Z,52.37
2023-05-06T02:20:39.849Z,40.28
2023-05-06T02:21:39.863Z,41.25
2023-05-06T02:22:39.786Z,39.96
2023-05-06T02:23:39.818Z,41.09
2023-05-06T02:24:39.805Z,52.37
2023-05-06T02:25:39.782Z,44.96
2023-05-06T02:26:39.804Z,42.54
2023-05-06T02:27:39.776Z,39.96
2023-05-06T02:28:39.779Z,42.54
2023-05-06T02:29:39.758Z,44.15
2023-05-06T02:30:39.766Z,41.09
2023-05-06T02:31:39.924Z,41.09
2023-05-06T02:32:39.765Z,40.28
2023-05-06T02:33:39.722Z,59.62
2023-05-06T02:34:39.703Z,42.06
2023-05-06T02:35:39.660Z,42.06
2023-05-06T02:36:39.645Z,41.25
2023-05-06T02:37:39.717Z,40.12
2023-05-06T02:38:39.662Z,41.41
2023-05-06T02:39:39.618Z,44.47
2023-05-06T02:40:39.641Z,45.76
2023-05-06T02:41:39.642Z,43.99
2023-05-06T02:42:39.692Z,44.63
2023-05-06T02:43:39.626Z,54.30
2023-05-06T02:44:39.583Z,54.95
2023-05-06T02:45:39.617Z,51.24
2023-05-06T02:46:39.590Z,58.65
2023-05-06T02:47:39.561Z,58.97
2023-05-06T02:48:39.533Z,58.81
2023-05-06T02:49:39.494Z,60.59
2023-05-06T02:50:39.502Z,60.91
2023-05-06T02:51:39.514Z,59.62
2023-05-06T02:52:39.506Z,58.65
2023-05-06T02:53:39.676Z,57.20
2023-05-06T02:54:40.473Z,58.65
2023-05-06T02:55:39.450Z,57.69
2023-05-06T02:56:39.470Z,60.75
2023-05-06T02:57:39.445Z,61.07
2023-05-06T02:58:39.446Z,61.23
2023-05-06T02:59:39.428Z,60.91
2023-05-06T03:00:39.418Z,61.39
2023-05-06T03:01:39.549Z,61.71
2023-05-06T03:02:39.404Z,60.59
2023-05-06T03:03:39.388Z,65.74
2023-05-06T03:04:39.387Z,69.77
2023-05-06T03:05:39.376Z,69.13
2023-05-06T03:06:39.356Z,69.61
2023-05-06T03:07:39.376Z,68.16
2023-05-06T03:08:39.326Z,69.77
2023-05-06T03:09:39.342Z,60.91
2023-05-06T03:10:39.319Z,61.07
2023-05-06T03:11:39.311Z,64.13
2023-05-06T03:12:39.321Z,70.09
2023-05-06T03:13:39.289Z,69.13
2023-05-06T03:14:39.270Z,68.96
2023-05-06T03:15:39.266Z,65.58
2023-05-06T03:16:39.333Z,61.55
2023-05-06T03:17:39.296Z,61.87
2023-05-06T03:18:39.225Z,61.71
2023-05-06T03:19:39.222Z,61.39
2023-05-06T03:20:39.226Z,61.23
2023-05-06T03:21:39.235Z,60.75
2023-05-06T03:22:39.210Z,61.23
2023-05-06T03:23:39.210Z,61.23
2023-05-06T03:24:39.191Z,60.26
2023-05-06T03:25:39.383Z,58.97
2023-05-06T03:26:39.180Z,60.59
2023-05-06T03:27:39.157Z,60.42
2023-05-06T03:28:39.147Z,60.75
2023-05-06T03:29:39.180Z,62.36
2023-05-06T03:30:39.119Z,62.20
2023-05-06T03:31:39.178Z,61.23
2023-05-06T03:32:39.149Z,60.59
2023-05-06T03:33:39.098Z,60.75
2023-05-06T03:34:39.132Z,61.71
2023-05-06T03:35:39.077Z,60.26
2023-05-06T03:36:39.059Z,61.23
2023-05-06T03:37:39.066Z,61.39
2023-05-06T03:38:39.063Z,60.59
2023-05-06T03:39:39.092Z,62.04
2023-05-06T03:40:39.039Z,61.87
2023-05-06T03:41:39.084Z,60.75
2023-05-06T03:42:39.015Z,58.97
2023-05-06T03:43:39.006Z,62.20
2023-05-06T03:44:39.005Z,61.23
2023-05-06T03:45:38.977Z,60.26
2023-05-06T03:46:39.048Z,61.87
2023-05-06T03:47:39.043Z,63.00
2023-05-06T03:48:38.970Z,65.10
2023-05-06T03:49:38.955Z,63.97
2023-05-06T03:50:38.940Z,64.29
2023-05-06T03:51:38.925Z,65.26
2023-05-06T03:52:38.951Z,63.00
2023-05-06T03:53:38.914Z,65.26
2023-05-06T03:54:38.890Z,66.39
2023-05-06T03:55:38.902Z,64.61
2023-05-06T03:56:38.873Z,63.65
2023-05-06T03:57:38.907Z,65.26
2023-05-06T03:58:38.856Z,63.49
2023-05-06T03:59:38.846Z,64.94
2023-05-06T04:00:38.845Z,64.94
2023-05-06T04:01:38.855Z,64.78
2023-05-06T04:02:38.995Z,63.00
2023-05-06T04:03:38.886Z,63.65
2023-05-06T04:04:38.799Z,65.58
2023-05-06T04:05:38.779Z,64.45
2023-05-06T04:06:38.776Z,62.84
2023-05-06T04:07:38.788Z,64.61
2023-05-06T04:08:38.760Z,63.49
2023-05-06T04:09:38.745Z,64.45
2023-05-06T04:10:38.756Z,62.36
2023-05-06T04:11:38.742Z,64.61
2023-05-06T04:12:38.772Z,63.16
2023-05-06T04:13:38.769Z,64.94
2023-05-06T04:14:38.702Z,64.29
2023-05-06T04:15:38.690Z,62.20
2023-05-06T04:16:38.798Z,61.07
2023-05-06T04:17:38.713Z,61.23
2023-05-06T04:18:38.657Z,63.16
2023-05-06T04:19:38.633Z,63.16
2023-05-06T04:20:38.630Z,62.36
2023-05-06T04:21:38.657Z,63.16
2023-05-06T04:22:38.607Z,61.23
2023-05-06T04:23:38.607Z,57.36
2023-05-06T04:24:38.610Z,61.23
2023-05-06T04:25:38.607Z,58.65
2023-05-06T04:26:38.583Z,64.94
2023-05-06T04:27:38.567Z,62.84
2023-05-06T04:28:38.564Z,63.33
2023-05-06T04:29:38.695Z,65.26
2023-05-06T04:30:38.559Z,61.87
2023-05-06T04:31:38.608Z,63.49
2023-05-06T04:32:38.567Z,64.29
2023-05-06T04:33:38.528Z,63.81
2023-05-06T04:34:38.548Z,63.00
2023-05-06T04:35:38.532Z,63.65
2023-05-06T04:36:40.588Z,64.29
2023-05-06T04:37:38.516Z,63.49
2023-05-06T04:38:38.521Z,63.16
2023-05-06T04:39:38.516Z,62.68
2023-05-06T04:40:38.483Z,49.15
2023-05-06T04:41:38.460Z,59.14
2023-05-06T04:42:38.437Z,59.78
2023-05-06T04:43:38.461Z,61.23
2023-05-06T04:44:38.519Z,60.10
2023-05-06T04:45:38.507Z,60.26
2023-05-06T04:46:38.415Z,59.94
2023-05-06T04:47:38.448Z,47.21
2023-05-06T04:48:38.380Z,56.88
2023-05-06T04:49:38.383Z,62.36
2023-05-06T04:50:38.367Z,59.62
2023-05-06T04:51:38.374Z,63.00
2023-05-06T04:52:38.377Z,61.23
2023-05-06T04:53:38.330Z,59.62
2023-05-06T04:54:38.333Z,60.75
2023-05-06T04:55:38.329Z,61.39
2023-05-06T04:56:38.331Z,62.84
2023-05-06T04:57:38.313Z,58.33
2023-05-06T04:58:38.349Z,60.75
2023-05-06T04:59:39.301Z,56.88
2023-05-06T05:00:38.288Z,58.33
2023-05-06T05:01:38.403Z,58.65
2023-05-06T05:02:38.366Z,61.07
2023-05-06T05:03:38.294Z,59.14
2023-05-06T05:04:38.276Z,60.75
2023-05-06T05:05:38.258Z,59.94
2023-05-06T05:06:38.227Z,59.62
2023-05-06T05:07:38.220Z,60.91
2023-05-06T05:08:38.198Z,65.42
2023-05-06T05:09:38.183Z,64.61
2023-05-06T05:10:38.168Z,63.65
2023-05-06T05:11:38.173Z,64.13
2023-05-06T05:12:38.185Z,68.32
2023-05-06T05:13:38.138Z,54.62
2023-05-06T05:14:38.140Z,51.24
2023-05-06T05:15:38.139Z,57.85
2023-05-06T05:16:38.175Z,60.59
2023-05-06T05:17:38.257Z,60.42
2023-05-06T05:18:38.097Z,59.78
2023-05-06T05:19:38.108Z,59.94
2023-05-06T05:20:38.085Z,61.39
2023-05-06T05:21:38.080Z,66.06
2023-05-06T05:22:38.072Z,62.84
2023-05-06T05:23:38.060Z,63.81
2023-05-06T05:24:38.038Z,62.84
2023-05-06T05:25:38.067Z,63.97
2023-05-06T05:26:38.034Z,62.84
2023-05-06T05:27:38.026Z,62.52
2023-05-06T05:28:37.996Z,63.33
2023-05-06T05:29:38.021Z,63.65
2023-05-06T05:30:38.032Z,60.75
2023-05-06T05:31:38.077Z,63.16
2023-05-06T05:32:38.019Z,63.49
2023-05-06T05:33:38.086Z,63.97
2023-05-06T05:34:37.955Z,59.94
2023-05-06T05:35:37.982Z,60.42
2023-05-06T05:36:37.938Z,61.39
2023-05-06T05:37:37.911Z,60.59
2023-05-06T05:38:37.916Z,56.24
2023-05-06T05:39:37.903Z,58.01
2023-05-06T05:40:37.894Z,61.39
2023-05-06T05:41:37.897Z,61.71
2023-05-06T05:42:37.869Z,60.59
2023-05-06T05:43:37.887Z,58.33
2023-05-06T05:44:37.844Z,62.52
2023-05-06T05:45:37.952Z,57.69
2023-05-06T05:46:38.943Z,48.34
2023-05-06T05:47:37.832Z,56.56
2023-05-06T05:48:37.816Z,60.42
2023-05-06T05:49:37.804Z,60.42
2023-05-06T05:50:37.797Z,55.91
2023-05-06T05:51:37.793Z,56.40
2023-05-06T05:52:37.895Z,64.61
2023-05-06T05:53:37.759Z,59.78
2023-05-06T05:54:37.756Z,60.75
2023-05-06T05:55:37.777Z,61.55
2023-05-06T05:56:37.724Z,60.59
2023-05-06T05:57:37.728Z,61.39
2023-05-06T05:58:37.734Z,61.07
2023-05-06T05:59:37.729Z,61.39
2023-05-06T06:00:37.711Z,50.43
2023-05-06T06:01:37.683Z,58.01
2023-05-06T06:02:37.795Z,61.87
2023-05-06T06:03:37.750Z,62.04
2023-05-06T06:04:38.479Z,53.66
2023-05-06T06:05:37.780Z,40.44
2023-05-06T06:06:37.624Z,55.91
2023-05-06T06:07:37.626Z,56.88
2023-05-06T06:08:37.656Z,61.23
2023-05-06T06:09:37.589Z,59.14
2023-05-06T06:10:37.574Z,56.56
2023-05-06T06:11:37.591Z,60.91
2023-05-06T06:12:37.577Z,57.52
2023-05-06T06:13:37.568Z,62.84
2023-05-06T06:14:37.556Z,60.42
2023-05-06T06:15:37.540Z,60.26
2023-05-06T06:16:37.576Z,62.36
2023-05-06T06:17:37.545Z,63.49
2023-05-06T06:18:37.539Z,63.33
2023-05-06T06:19:37.509Z,58.17
2023-05-06T06:20:37.469Z,57.52
2023-05-06T06:21:37.579Z,62.04
2023-05-06T06:22:37.469Z,58.81
2023-05-06T06:23:37.470Z,56.07
2023-05-06T06:24:37.741Z,59.62
2023-05-06T06:25:37.442Z,58.01
2023-05-06T06:26:37.452Z,58.01
2023-05-06T06:27:37.421Z,61.87
2023-05-06T06:28:37.442Z,64.45
2023-05-06T06:29:37.415Z,53.82
2023-05-06T06:30:37.411Z,59.46
2023-05-06T06:31:39.722Z,59.78
2023-05-06T06:32:37.396Z,62.52
2023-05-06T06:33:37.343Z,66.87
2023-05-06T06:34:38.351Z,59.30
2023-05-06T06:35:37.350Z,59.78
2023-05-06T06:36:37.351Z,61.07
2023-05-06T06:37:37.381Z,62.04
2023-05-06T06:38:37.344Z,55.75
2023-05-06T06:39:37.331Z,58.17
2023-05-06T06:40:37.289Z,61.39
2023-05-06T06:41:37.317Z,60.75
2023-05-06T06:42:37.964Z,58.97
2023-05-06T06:43:37.235Z,58.01
2023-05-06T06:44:37.273Z,58.33
2023-05-06T06:45:37.266Z,57.36
2023-05-06T06:46:37.213Z,62.52
2023-05-06T06:47:37.451Z,63.33
2023-05-06T06:48:37.225Z,61.87
2023-05-06T06:49:37.196Z,60.59
2023-05-06T06:50:37.225Z,63.49
2023-05-06T06:51:37.211Z,60.10
2023-05-06T06:52:37.195Z,59.94
2023-05-06T06:53:37.213Z,57.69
2023-05-06T06:54:37.122Z,50.11
2023-05-06T06:55:37.141Z,41.89
2023-05-06T06:56:37.114Z,59.46
2023-05-06T06:57:37.114Z,58.33
2023-05-06T06:58:38.074Z,61.23
2023-05-06T06:59:37.295Z,54.14
2023-05-06T07:00:38.716Z,61.55
2023-05-06T07:01:37.130Z,58.65
2023-05-06T07:02:37.065Z,57.69
2023-05-06T07:03:37.118Z,58.81
2023-05-06T07:04:38.182Z,58.17
2023-05-06T07:05:37.040Z,51.88
2023-05-06T07:06:37.884Z,51.72
2023-05-06T07:07:36.998Z,61.07
2023-05-06T07:08:36.990Z,59.14
2023-05-06T07:09:40.044Z,62.84
2023-05-06T07:10:36.957Z,62.36
2023-05-06T07:11:36.945Z,61.55
2023-05-06T07:12:36.944Z,59.30
2023-05-06T07:13:37.074Z,58.81
2023-05-06T07:14:36.933Z,57.20
2023-05-06T07:15:36.913Z,61.39
2023-05-06T07:16:37.936Z,58.97
2023-05-06T07:17:36.934Z,53.17
2023-05-06T07:18:37.896Z,60.10
2023-05-06T07:19:36.925Z,58.65
2023-05-06T07:20:36.915Z,59.94
2023-05-06T07:21:36.855Z,57.85
2023-05-06T07:22:36.843Z,62.36
2023-05-06T07:23:36.822Z,62.20
2023-05-06T07:24:36.850Z,67.51
2023-05-06T07:25:36.834Z,54.30
2023-05-06T07:26:36.828Z,57.85
2023-05-06T07:27:36.797Z,61.55
2023-05-06T07:28:36.783Z,61.87
2023-05-06T07:29:36.768Z,60.42
2023-05-06T07:30:36.746Z,58.65
2023-05-06T07:31:36.823Z,60.42
2023-05-06T07:32:36.744Z,54.46
2023-05-06T07:33:36.736Z,56.88
2023-05-06T07:34:36.833Z,60.75
2023-05-06T07:35:36.730Z,61.23
2023-05-06T07:36:38.668Z,61.55
2023-05-06T07:37:36.692Z,77.02
2023-05-06T07:38:36.694Z,75.89
2023-05-06T07:39:36.686Z,61.23
2023-05-06T07:40:36.669Z,56.07
2023-05-06T07:41:36.737Z,57.36
2023-05-06T07:42:36.650Z,58.97
2023-05-06T07:43:36.730Z,61.55
2023-05-06T07:44:36.620Z,61.87
2023-05-06T07:45:36.625Z,59.78
2023-05-06T07:46:36.684Z,56.40
2023-05-06T07:47:36.700Z,59.30
2023-05-06T07:48:36.616Z,61.07
2023-05-06T07:49:36.565Z,60.26
2023-05-06T07:50:36.542Z,59.62
2023-05-06T07:51:36.519Z,59.94
2023-05-06T07:52:36.572Z,58.49
2023-05-06T07:53:36.536Z,64.29
2023-05-06T07:54:36.510Z,57.04
2023-05-06T07:55:36.510Z,56.56
2023-05-06T07:56:36.482Z,59.62
2023-05-06T07:57:36.464Z,58.33
2023-05-06T07:58:36.459Z,57.85
2023-05-06T07:59:36.441Z,59.30
2023-05-06T08:00:36.442Z,70.25
2023-05-06T08:01:36.422Z,68.32
2023-05-06T08:02:36.538Z,58.17
2023-05-06T08:03:36.523Z,58.01
2023-05-06T08:04:36.411Z,58.97
2023-05-06T08:05:36.391Z,62.52
2023-05-06T08:06:37.400Z,68.32
2023-05-06T08:07:36.383Z,65.58
2023-05-06T08:08:36.372Z,59.94
2023-05-06T08:09:36.376Z,60.59
2023-05-06T08:10:36.375Z,62.84
2023-05-06T08:11:36.353Z,59.62
2023-05-06T08:12:36.392Z,51.40
2023-05-06T08:13:36.369Z,65.58
2023-05-06T08:14:36.284Z,53.17
2023-05-06T08:15:36.280Z,60.75
2023-05-06T08:16:36.295Z,61.71
2023-05-06T08:17:36.294Z,57.36
2023-05-06T08:18:36.288Z,57.04
2023-05-06T08:19:36.253Z,60.10
2023-05-06T08:20:36.268Z,59.78
2023-05-06T08:21:36.280Z,61.39
2023-05-06T08:22:36.254Z,60.10
2023-05-06T08:23:36.218Z,60.10
2023-05-06T08:24:36.259Z,55.11
2023-05-06T08:25:36.238Z,60.26
2023-05-06T08:26:36.224Z,60.59
2023-05-06T08:27:36.197Z,61.23
2023-05-06T08:28:36.198Z,58.33
2023-05-06T08:29:36.252Z,50.92
2023-05-06T08:30:36.204Z,59.30
2023-05-06T08:31:36.226Z,60.42
2023-05-06T08:32:36.185Z,59.30
2023-05-06T08:33:36.160Z,61.71
2023-05-06T08:34:36.131Z,61.71
2023-05-06T08:35:36.119Z,58.17
2023-05-06T08:36:36.112Z,59.46
2023-05-06T08:37:36.092Z,59.62
2023-05-06T08:38:36.097Z,59.94
2023-05-06T08:39:36.082Z,62.68
2023-05-06T08:40:36.107Z,62.84
2023-05-06T08:41:36.066Z,61.71
2023-05-06T08:42:36.042Z,60.42
2023-05-06T08:43:36.041Z,61.23
2023-05-06T08:44:36.047Z,57.36
2023-05-06T08:45:36.181Z,47.21
2023-05-06T08:46:36.025Z,59.62
2023-05-06T08:47:36.023Z,62.84
2023-05-06T08:48:35.980Z,58.81
2023-05-06T08:49:35.959Z,60.91
2023-05-06T08:50:35.948Z,56.24
2023-05-06T08:51:35.918Z,59.30
2023-05-06T08:52:35.951Z,59.94
2023-05-06T08:53:35.896Z,61.07
2023-05-06T08:54:36.910Z,56.72
2023-05-06T08:55:35.905Z,53.66
2023-05-06T08:56:35.882Z,58.81
2023-05-06T08:57:35.866Z,60.59
2023-05-06T08:58:35.878Z,61.23
2023-05-06T08:59:35.859Z,59.62
2023-05-06T09:00:35.836Z,56.40
2023-05-06T09:01:35.940Z,65.10
2023-05-06T09:02:35.851Z,52.37
2023-05-06T09:03:35.886Z,60.26
2023-05-06T09:04:35.850Z,57.85
2023-05-06T09:05:35.828Z,58.17
2023-05-06T09:06:35.821Z,57.20
2023-05-06T09:07:35.826Z,59.46
2023-05-06T09:08:35.838Z,60.10
2023-05-06T09:09:35.812Z,39.32
2023-05-06T09:10:35.784Z,58.01
2023-05-06T09:11:35.756Z,59.14
2023-05-06T09:12:35.811Z,56.72
2023-05-06T09:13:35.774Z,48.82
2023-05-06T09:14:35.767Z,59.94
2023-05-06T09:15:35.772Z,72.35
2023-05-06T09:16:35.797Z,60.59
2023-05-06T09:17:35.801Z,54.14
2023-05-06T09:18:35.674Z,56.40
2023-05-06T09:19:35.662Z,58.33
2023-05-06T09:20:35.678Z,54.46
2023-05-06T09:21:35.662Z,56.24
2023-05-06T09:22:35.656Z,58.01
2023-05-06T09:23:35.636Z,57.36
2023-05-06T09:24:35.643Z,41.89
2023-05-06T09:25:35.635Z,56.40
2023-05-06T09:26:35.608Z,49.15
2023-05-06T09:27:36.601Z,41.73
2023-05-06T09:28:35.562Z,57.36
2023-05-06T09:29:35.545Z,58.33
2023-05-06T09:30:35.555Z,56.72
2023-05-06T09:31:35.571Z,56.40
2023-05-06T09:32:37.490Z,62.36
2023-05-06T09:33:35.620Z,57.69
2023-05-06T09:34:35.490Z,57.04
2023-05-06T09:35:35.494Z,56.07
2023-05-06T09:36:35.488Z,61.07
2023-05-06T09:37:35.474Z,53.33
2023-05-06T09:38:35.459Z,55.11
2023-05-06T09:39:35.481Z,61.71
2023-05-06T09:40:35.437Z,61.87
2023-05-06T09:41:35.453Z,52.05
2023-05-06T09:42:35.418Z,55.91
2023-05-06T09:43:35.423Z,59.78
2023-05-06T09:44:35.420Z,60.26
2023-05-06T09:45:35.419Z,60.42
2023-05-06T09:46:35.448Z,59.46
2023-05-06T09:47:35.556Z,59.14
2023-05-06T09:48:35.428Z,51.24
2023-05-06T09:49:35.476Z,64.94
2023-05-06T09:50:35.381Z,56.56
2023-05-06T09:51:35.371Z,45.12
2023-05-06T09:52:35.323Z,57.36
2023-05-06T09:53:35.313Z,58.81
2023-05-06T09:54:35.299Z,61.87
2023-05-06T09:55:35.309Z,59.78
2023-05-06T09:56:35.304Z,61.07
2023-05-06T09:57:35.272Z,52.21
2023-05-06T09:58:35.266Z,56.56
2023-05-06T09:59:35.251Z,59.30
2023-05-06T10:00:35.260Z,59.62
2023-05-06T10:01:37.181Z,56.88
2023-05-06T10:02:36.376Z,60.42
2023-05-06T10:03:35.349Z,60.91
2023-05-06T10:04:35.443Z,56.24
2023-05-06T10:05:35.291Z,58.49
2023-05-06T10:06:35.204Z,58.17
2023-05-06T10:07:35.195Z,41.57
2023-05-06T10:08:35.195Z,38.67
2023-05-06T10:09:35.208Z,59.14
2023-05-06T10:10:35.189Z,60.75
2023-05-06T10:11:35.163Z,53.82
2023-05-06T10:12:35.154Z,54.95
2023-05-06T10:13:35.114Z,60.59
2023-05-06T10:14:35.140Z,54.46
2023-05-06T10:15:35.096Z,58.97
2023-05-06T10:16:35.138Z,60.26
2023-05-06T10:17:35.121Z,57.04
2023-05-06T10:18:35.062Z,59.94
2023-05-06T10:19:35.072Z,58.49
2023-05-06T10:20:35.154Z,60.91
2023-05-06T10:21:35.032Z,59.94
2023-05-06T10:22:35.080Z,60.26
2023-05-06T10:23:35.065Z,48.82
2023-05-06T10:24:35.040Z,57.36
2023-05-06T10:25:35.022Z,56.40
2023-05-06T10:26:35.003Z,60.26
2023-05-06T10:27:35.012Z,45.76
2023-05-06T10:28:35.024Z,56.88
2023-05-06T10:29:34.994Z,52.85
2023-05-06T10:30:34.969Z,58.17
2023-05-06T10:31:35.029Z,55.27
2023-05-06T10:32:35.018Z,57.04
2023-05-06T10:33:35.949Z,58.49
2023-05-06T10:34:34.931Z,45.28
2023-05-06T10:35:34.921Z,57.36
2023-05-06T10:36:34.918Z,53.98
2023-05-06T10:37:35.035Z,49.79
2023-05-06T10:38:34.914Z,57.52
2023-05-06T10:39:34.855Z,54.62
2023-05-06T10:40:34.849Z,54.62
2023-05-06T10:41:34.845Z,52.37
2023-05-06T10:42:34.855Z,58.33
2023-05-06T10:43:34.866Z,59.78
2023-05-06T10:44:34.820Z,58.49
2023-05-06T10:45:34.808Z,57.20
2023-05-06T10:46:34.797Z,57.04
2023-05-06T10:47:34.883Z,59.46
2023-05-06T10:48:34.788Z,55.59
2023-05-06T10:49:34.772Z,56.24
2023-05-06T10:50:34.758Z,52.69
2023-05-06T10:51:34.763Z,54.62
2023-05-06T10:52:34.741Z,57.85
2023-05-06T10:53:34.786Z,58.17
2023-05-06T10:54:34.715Z,58.17
2023-05-06T10:55:34.717Z,42.38
2023-05-06T10:56:34.705Z,56.56
2023-05-06T10:57:34.729Z,61.39
2023-05-06T10:58:34.698Z,49.95
2023-05-06T10:59:34.685Z,54.46
2023-05-06T11:00:34.689Z,55.27
2023-05-06T11:01:34.735Z,54.30
2023-05-06T11:02:34.780Z,57.36
2023-05-06T11:03:34.729Z,56.40
2023-05-06T11:04:34.638Z,45.76
2023-05-06T11:05:34.623Z,56.24
2023-05-06T11:06:34.628Z,53.98
2023-05-06T11:07:34.584Z,57.69
2023-05-06T11:08:34.588Z,44.31
2023-05-06T11:09:34.759Z,56.07
2023-05-06T11:10:34.575Z,53.17
2023-05-06T11:11:34.553Z,40.61
2023-05-06T11:12:34.569Z,43.02
2023-05-06T11:13:34.546Z,56.24
2023-05-06T11:14:34.543Z,59.94
2023-05-06T11:15:34.527Z,59.78
2023-05-06T11:16:34.834Z,60.91
2023-05-06T11:17:34.541Z,59.94
2023-05-06T11:18:34.495Z,40.61
2023-05-06T11:19:34.472Z,49.15
2023-05-06T11:20:34.476Z,57.85
2023-05-06T11:21:34.458Z,56.72
2023-05-06T11:22:34.445Z,55.27
2023-05-06T11:23:34.439Z,60.10
2023-05-06T11:24:34.422Z,54.95
2023-05-06T11:25:34.495Z,53.17
2023-05-06T11:26:34.410Z,53.66
2023-05-06T11:27:34.412Z,61.55
2023-05-06T11:28:34.400Z,59.94
2023-05-06T11:29:34.419Z,56.24
2023-05-06T11:30:34.400Z,55.27
2023-05-06T11:31:34.497Z,54.30
2023-05-06T11:32:34.376Z,59.94
2023-05-06T11:33:34.370Z,54.14
2023-05-06T11:34:34.372Z,52.05
2023-05-06T11:35:34.327Z,39.48
2023-05-06T11:36:34.306Z,48.66
2023-05-06T11:37:34.323Z,60.75
2023-05-06T11:38:34.283Z,60.42
2023-05-06T11:39:39.887Z,57.69
2023-05-06T11:40:36.267Z,54.95
2023-05-06T11:41:34.322Z,55.59
2023-05-06T11:42:34.262Z,62.36
2023-05-06T11:43:34.233Z,53.66
2023-05-06T11:44:34.242Z,57.85
2023-05-06T11:45:34.218Z,61.39
2023-05-06T11:46:34.229Z,55.27
2023-05-06T11:47:34.225Z,58.97
2023-05-06T11:48:34.196Z,62.52
2023-05-06T11:49:36.698Z,62.84
2023-05-06T11:50:34.165Z,56.72
2023-05-06T11:51:37.200Z,57.85
2023-05-06T11:52:34.173Z,57.85
2023-05-06T11:53:34.154Z,57.04
2023-05-06T11:54:34.132Z,56.88
2023-05-06T11:55:34.117Z,56.88
2023-05-06T11:56:34.111Z,59.78
2023-05-06T11:57:34.254Z,58.33
2023-05-06T11:58:34.168Z,55.43
2023-05-06T11:59:34.075Z,57.85
2023-05-06T12:00:34.079Z,56.07
2023-05-06T12:01:34.060Z,55.91
2023-05-06T12:02:34.122Z,56.40
2023-05-06T12:03:34.150Z,59.62
2023-05-06T12:04:54.017Z,56.40
2023-05-06T12:05:34.020Z,58.81
2023-05-06T12:06:34.016Z,52.05
2023-05-06T12:07:34.076Z,63.65
2023-05-06T12:08:34.040Z,60.91
2023-05-06T12:09:33.982Z,51.08
2023-05-06T12:10:33.980Z,55.91
2023-05-06T12:11:33.958Z,54.79
2023-05-06T12:12:33.997Z,57.52
2023-05-06T12:13:34.005Z,58.33
2023-05-06T12:14:33.941Z,60.26
2023-05-06T12:15:33.930Z,58.17
2023-05-06T12:16:33.941Z,61.87
2023-05-06T12:17:33.933Z,56.88
2023-05-06T12:18:33.920Z,55.91
2023-05-06T12:19:33.984Z,45.76
2023-05-06T12:20:33.882Z,38.35
2023-05-06T12:21:33.886Z,56.40
2023-05-06T12:22:33.860Z,60.26
2023-05-06T12:23:33.901Z,58.33
2023-05-06T12:24:33.846Z,53.98
2023-05-06T12:25:33.820Z,57.36
2023-05-06T12:26:33.828Z,62.36
2023-05-06T12:27:33.860Z,59.14
2023-05-06T12:28:33.806Z,58.49
2023-05-06T12:29:33.869Z,56.72
2023-05-06T12:30:33.777Z,60.59
2023-05-06T12:31:33.840Z,54.30
2023-05-06T12:32:33.831Z,58.81
2023-05-06T12:33:33.746Z,59.46
2023-05-06T12:34:33.738Z,54.62
2023-05-06T12:35:33.736Z,57.36
2023-05-06T12:36:33.731Z,44.15
2023-05-06T12:37:33.715Z,59.78
2023-05-06T12:38:33.695Z,55.11
2023-05-06T12:39:33.693Z,53.33
2023-05-06T12:40:33.692Z,54.62
2023-05-06T12:41:33.681Z,54.62
2023-05-06T12:42:33.677Z,56.88
2023-05-06T12:43:33.658Z,55.43
2023-05-06T12:44:33.638Z,62.20
2023-05-06T12:45:33.758Z,39.48
2023-05-06T12:46:33.656Z,40.12
2023-05-06T12:47:34.692Z,55.59
2023-05-06T12:48:33.606Z,53.98
2023-05-06T12:49:33.591Z,52.85
2023-05-06T12:50:33.616Z,54.46
2023-05-06T12:51:33.575Z,52.69
2023-05-06T12:52:33.574Z,62.04